Time;durP1;ratioP1;P1;durP2;ratioP2;P2;SDS_P1;SDS_P2;PMS_P1;PMS_P2;Temp;Humidity;BMP_temperature;BMP_pressure;BME280_temperature;BME280_humidity;BME280_pressure;Samples;Min_cycle;Max_cycle;Signal;HPM_P1;HPM_P2
2022/11/16 00:00:19;;;;;;;6.70;4.45;;;10.80;99.90;;;;;;5040724;28;20489;-42
2022/11/16 00:02:47;;;;;;;6.07;3.80;;;10.80;99.90;;;;;;5041361;28;20114;-44
2022/11/16 00:05:13;;;;;;;7.65;5.03;;;10.80;99.90;;;;;;5043218;28;20045;-45
2022/11/16 00:07:38;;;;;;;7.35;4.43;;;10.80;99.90;;;;;;5046693;28;20384;-43
2022/11/16 00:10:04;;;;;;;7.00;4.32;;;10.80;99.90;;;;;;5047051;28;20052;-47
2022/11/16 00:12:30;;;;;;;6.80;4.40;;;10.80;99.90;;;;;;5040408;28;20041;-44
2022/11/16 00:14:56;;;;;;;7.30;4.65;;;10.80;99.90;;;;;;5040436;28;20036;-41
2022/11/16 00:17:21;;;;;;;6.75;4.15;;;10.80;99.90;;;;;;5041697;28;20044;-42
2022/11/16 00:19:47;;;;;;;7.25;4.82;;;10.70;99.90;;;;;;5043176;28;20033;-46
2022/11/16 00:22:13;;;;;;;6.57;4.50;;;10.80;99.90;;;;;;5044507;28;20098;-44
2022/11/16 00:24:39;;;;;;;10.00;5.03;;;10.80;99.90;;;;;;5044552;28;20045;-47
2022/11/16 00:27:04;;;;;;;8.27;4.60;;;10.70;99.90;;;;;;5049299;28;20123;-46
2022/11/16 00:29:30;;;;;;;7.55;4.80;;;10.80;99.90;;;;;;5036989;28;20060;-43
2022/11/16 00:31:56;;;;;;;7.22;4.50;;;10.80;99.90;;;;;;5041304;28;20057;-43
2022/11/16 00:34:22;;;;;;;7.70;4.65;;;10.80;99.90;;;;;;5045445;28;20056;-45
2022/11/16 00:36:48;;;;;;;10.02;4.78;;;10.80;99.90;;;;;;5048024;28;20048;-42
2022/11/16 00:39:15;;;;;;;7.47;5.15;;;10.80;99.90;;;;;;5043607;28;20045;-42
2022/11/16 00:41:42;;;;;;;10.30;4.82;;;10.80;99.90;;;;;;5048816;28;21761;-43
2022/11/16 00:44:09;;;;;;;8.43;5.18;;;10.80;99.90;;;;;;5046751;28;20635;-43
2022/11/16 00:46:34;;;;;;;7.97;5.20;;;10.80;99.90;;;;;;5042225;28;20041;-44
2022/11/16 00:49:00;;;;;;;7.60;4.70;;;10.80;99.90;;;;;;5046334;28;20045;-44
2022/11/16 00:51:26;;;;;;;8.77;4.88;;;10.80;99.90;;;;;;5041891;28;20039;-43
2022/11/16 00:53:51;;;;;;;9.25;5.57;;;10.70;99.90;;;;;;5047282;28;20029;-41
2022/11/16 00:56:17;;;;;;;8.98;4.97;;;10.70;99.90;;;;;;5047966;28;20029;-46
2022/11/16 00:58:42;;;;;;;10.70;5.07;;;10.70;99.90;;;;;;5046483;28;20486;-46
2022/11/16 01:01:10;;;;;;;11.38;5.38;;;10.70;99.90;;;;;;5042486;28;20033;-40
2022/11/16 01:03:36;;;;;;;9.25;5.10;;;10.70;99.90;;;;;;5045030;28;20048;-47
2022/11/16 01:06:11;;;;;;;8.95;5.55;;;10.70;99.90;;;;;;5045379;28;20065;-44
2022/11/16 01:08:38;;;;;;;9.30;5.80;;;10.80;99.90;;;;;;5046423;28;20398;-46
2022/11/16 01:13:48;;;;;;;9.48;5.50;;;10.80;99.90;;;;;;5043940;28;20045;-44
2022/11/16 01:16:16;;;;;;;10.82;5.93;;;10.80;99.90;;;;;;5048214;28;20102;-41
2022/11/16 01:18:42;;;;;;;8.95;5.53;;;10.80;99.90;;;;;;5042197;28;20049;-45
2022/11/16 01:21:08;;;;;;;11.07;5.40;;;10.80;99.90;;;;;;5046450;28;20120;-43
2022/11/16 01:23:34;;;;;;;8.20;5.45;;;10.80;99.90;;;;;;5051475;28;20124;-43
2022/11/16 01:26:00;;;;;;;8.25;5.35;;;10.80;99.90;;;;;;5043243;28;20045;-42
2022/11/16 01:28:30;;;;;;;11.43;5.80;;;10.80;99.90;;;;;;5048414;28;20105;-47
2022/11/16 01:30:56;;;;;;;8.07;5.20;;;10.80;99.90;;;;;;5046880;28;20060;-47
2022/11/16 01:33:22;;;;;;;10.27;5.82;;;10.80;99.90;;;;;;5039035;28;20033;-43
2022/11/16 01:35:48;;;;;;;10.40;6.25;;;10.80;99.90;;;;;;5045450;28;20047;-44
2022/11/16 01:38:14;;;;;;;12.73;6.43;;;10.80;99.90;;;;;;5043175;28;20041;-43
2022/11/16 01:40:40;;;;;;;9.55;6.15;;;10.80;99.90;;;;;;5046038;28;20040;-41
2022/11/16 01:43:17;;;;;;;9.80;5.68;;;10.80;99.90;;;;;;5041048;28;20416;-42
2022/11/16 01:45:44;;;;;;;10.23;6.47;;;10.80;99.90;;;;;;5044776;28;20501;-44
2022/11/16 01:48:13;;;;;;;13.40;5.97;;;10.80;99.90;;;;;;5042440;28;20479;-43
2022/11/16 01:50:39;;;;;;;9.10;5.80;;;10.80;99.90;;;;;;5048021;28;20519;-44
2022/11/16 01:53:07;;;;;;;11.75;6.50;;;10.80;99.90;;;;;;5042688;28;20048;-44
2022/11/16 01:55:35;;;;;;;10.65;6.63;;;10.80;99.90;;;;;;5044765;28;20119;-47
2022/11/16 01:58:02;;;;;;;10.45;6.55;;;10.80;99.90;;;;;;5047599;28;20049;-45
2022/11/16 02:00:27;;;;;;;10.23;6.70;;;10.80;99.90;;;;;;5042636;28;20044;-46
2022/11/16 02:02:53;;;;;;;11.27;6.45;;;10.80;99.90;;;;;;5040798;28;20040;-43
2022/11/16 02:05:25;;;;;;;12.27;6.80;;;10.90;99.90;;;;;;5037118;28;20044;-47
2022/11/16 02:11:25;;;;;;;11.60;7.40;;;10.90;99.90;;;;;;5043023;28;20044;-42
2022/11/16 02:14:22;;;;;;;11.40;6.70;;;10.90;99.90;;;;;;5045573;28;20482;-45
2022/11/16 02:16:55;;;;;;;12.25;7.50;;;10.90;99.90;;;;;;5042631;28;20467;-42
2022/11/16 02:19:59;;;;;;;11.43;7.03;;;10.90;99.90;;;;;;5044038;28;20115;-44
2022/11/16 02:22:54;;;;;;;14.52;7.07;;;10.90;99.90;;;;;;5061208;28;20112;-41
2022/11/16 02:25:41;;;;;;;12.10;7.07;;;10.90;99.90;;;;;;5044793;28;20454;-41
2022/11/16 02:28:22;;;;;;;10.90;6.50;;;10.90;99.90;;;;;;5045792;28;20072;-44
2022/11/16 02:30:51;;;;;;;11.63;7.03;;;10.90;99.90;;;;;;5046511;28;20127;-42
2022/11/16 02:33:21;;;;;;;10.73;7.03;;;10.90;99.90;;;;;;5040398;28;20136;-41
2022/11/16 02:35:54;;;;;;;12.85;7.32;;;10.90;99.90;;;;;;5043459;28;20502;-47
2022/11/16 02:38:25;;;;;;;10.55;6.75;;;10.90;99.90;;;;;;5046011;28;20124;-42
2022/11/16 02:40:56;;;;;;;12.05;7.20;;;10.90;99.90;;;;;;5046518;28;20497;-43
2022/11/16 02:43:34;;;;;;;11.70;6.93;;;10.90;99.90;;;;;;5037309;28;20032;-42
2022/11/16 02:46:06;;;;;;;13.25;8.10;;;10.90;99.90;;;;;;5038529;28;20040;-46
2022/11/16 02:48:39;;;;;;;11.52;7.45;;;10.90;99.90;;;;;;5038356;28;20071;-47
2022/11/16 02:51:06;;;;;;;13.50;8.05;;;10.90;99.90;;;;;;5047255;28;20045;-43
2022/11/16 02:53:36;;;;;;;11.52;7.00;;;10.90;99.90;;;;;;5038545;28;20081;-45
2022/11/16 02:56:02;;;;;;;11.50;7.45;;;10.90;99.90;;;;;;5040989;28;20041;-44
2022/11/16 02:58:28;;;;;;;13.98;7.90;;;10.90;99.90;;;;;;5044493;28;20043;-40
2022/11/16 03:01:14;;;;;;;13.10;7.68;;;10.90;99.90;;;;;;5042030;28;20487;-43
2022/11/16 03:03:49;;;;;;;12.07;6.40;;;10.90;99.90;;;;;;5043535;28;20567;-42
2022/11/16 03:06:27;;;;;;;11.75;7.53;;;10.90;99.90;;;;;;5040418;28;20040;-42
2022/11/16 03:09:10;;;;;;;11.20;6.97;;;10.90;99.90;;;;;;5045950;28;20041;-42
2022/11/16 03:11:59;;;;;;;10.30;6.43;;;10.90;99.90;;;;;;5043401;28;20036;-47
2022/11/16 03:14:54;;;;;;;11.73;7.05;;;10.90;99.90;;;;;;5037177;28;20041;-42
2022/11/16 03:17:38;;;;;;;12.35;6.72;;;10.90;99.90;;;;;;5044076;28;20132;-44
2022/11/16 03:20:19;;;;;;;11.20;7.25;;;10.90;99.90;;;;;;5041296;28;20037;-43
2022/11/16 03:22:48;;;;;;;11.07;6.97;;;10.90;99.90;;;;;;5033946;28;20037;-39
2022/11/16 03:25:18;;;;;;;11.70;6.85;;;10.90;99.90;;;;;;5043935;28;20406;-42
2022/11/16 03:28:05;;;;;;;12.52;6.75;;;10.90;99.90;;;;;;5044821;28;20040;-42
2022/11/16 03:30:36;;;;;;;11.43;7.47;;;11.00;99.90;;;;;;5046752;28;20041;-43
2022/11/16 03:33:31;;;;;;;11.02;6.88;;;11.00;99.90;;;;;;5047160;28;20056;-43
2022/11/16 03:36:19;;;;;;;11.98;6.90;;;10.90;99.90;;;;;;5039348;28;20140;-44
2022/11/16 03:38:49;;;;;;;11.82;7.22;;;11.00;99.90;;;;;;5041920;28;20106;-42
2022/11/16 03:41:16;;;;;;;12.55;7.18;;;11.00;99.90;;;;;;5046537;28;20036;-45
2022/11/16 03:43:43;;;;;;;12.38;6.97;;;11.00;99.90;;;;;;5038451;28;20620;-41
2022/11/16 03:46:10;;;;;;;12.55;7.85;;;11.00;99.90;;;;;;5045234;28;20390;-45
2022/11/16 03:48:38;;;;;;;11.52;7.10;;;11.00;99.90;;;;;;5047330;28;20047;-41
2022/11/16 03:51:06;;;;;;;13.52;7.93;;;11.00;99.90;;;;;;5045586;28;20063;-42
2022/11/16 03:53:32;;;;;;;11.40;7.13;;;11.00;99.90;;;;;;5040471;28;20146;-43
2022/11/16 03:55:58;;;;;;;12.95;8.10;;;11.00;99.90;;;;;;5042516;28;20045;-43
2022/11/16 03:58:23;;;;;;;13.18;7.65;;;11.00;99.90;;;;;;5050965;28;20060;-44
2022/11/16 04:00:49;;;;;;;11.13;7.10;;;11.00;99.90;;;;;;5046709;28;20040;-48
2022/11/16 04:03:15;;;;;;;12.07;7.75;;;11.00;99.90;;;;;;5050879;28;20071;-42
2022/11/16 04:25:13;;;;;;;12.63;7.18;;;11.00;99.90;;;;;;5040845;28;20048;-42
2022/11/16 04:30:23;;;;;;;11.15;6.95;;;10.90;99.90;;;;;;5045898;28;20060;-43
2022/11/16 04:38:18;;;;;;;11.63;7.63;;;11.00;99.90;;;;;;5044022;28;20107;-45
2022/11/16 04:40:43;;;;;;;10.27;6.95;;;10.90;99.90;;;;;;5050264;28;20467;-43
2022/11/16 04:43:09;;;;;;;10.75;6.93;;;10.90;99.90;;;;;;5047135;28;20633;-43
2022/11/16 04:48:19;;;;;;;12.60;6.55;;;10.90;99.90;;;;;;5047915;28;20041;-45
2022/11/16 04:50:46;;;;;;;12.05;7.75;;;10.90;99.90;;;;;;5048135;28;20039;-42
2022/11/16 04:53:12;;;;;;;10.73;7.28;;;11.00;99.90;;;;;;5045102;28;20124;-40
2022/11/16 04:55:38;;;;;;;11.18;7.43;;;11.00;99.90;;;;;;5047033;28;20086;-43
2022/11/16 04:58:04;;;;;;;11.50;7.05;;;11.00;99.90;;;;;;5047284;28;20045;-43
2022/11/16 05:00:30;;;;;;;9.90;5.82;;;11.00;99.90;;;;;;5042962;28;20037;-40
2022/11/16 05:02:56;;;;;;;11.77;7.30;;;11.00;99.90;;;;;;5046480;28;20053;-41
2022/11/16 05:05:22;;;;;;;10.52;6.88;;;11.00;99.90;;;;;;5043095;28;20642;-43
2022/11/16 05:07:47;;;;;;;10.77;7.07;;;11.00;99.90;;;;;;5038365;28;20071;-42
2022/11/16 05:10:13;;;;;;;10.88;7.13;;;11.00;99.90;;;;;;5049065;28;20524;-42
2022/11/16 05:12:39;;;;;;;10.07;7.03;;;11.00;99.90;;;;;;5038836;28;20395;-45
2022/11/16 05:15:06;;;;;;;10.15;6.50;;;11.00;99.90;;;;;;5048143;28;20041;-42
2022/11/16 05:17:32;;;;;;;10.68;6.97;;;11.00;99.90;;;;;;5045651;28;20057;-44
2022/11/16 05:22:43;;;;;;;12.25;7.20;;;11.00;99.90;;;;;;5047343;28;20044;-44
2022/11/16 05:25:09;;;;;;;11.77;7.18;;;11.00;99.90;;;;;;5041626;28;20405;-41
2022/11/16 05:27:36;;;;;;;12.50;7.38;;;11.00;99.90;;;;;;5045584;28;20060;-47
2022/11/16 05:30:03;;;;;;;10.93;7.07;;;11.00;99.90;;;;;;5045524;28;20417;-44
2022/11/16 05:32:28;;;;;;;10.88;6.10;;;11.00;99.90;;;;;;5042898;28;20132;-45
2022/11/16 05:34:54;;;;;;;11.93;7.85;;;11.00;99.90;;;;;;5041895;28;20892;-47
2022/11/16 05:37:20;;;;;;;10.85;6.95;;;11.00;99.90;;;;;;5042625;28;20041;-42
2022/11/16 05:39:46;;;;;;;11.73;7.30;;;11.00;99.90;;;;;;5046586;28;20045;-42
2022/11/16 05:42:12;;;;;;;9.50;6.30;;;11.00;99.90;;;;;;5042453;28;20091;-43
2022/11/16 05:44:38;;;;;;;8.65;5.43;;;11.00;99.90;;;;;;5044608;28;20045;-45
2022/11/16 05:47:04;;;;;;;8.73;5.25;;;11.00;99.90;;;;;;5045449;28;20041;-43
2022/11/16 05:49:29;;;;;;;9.00;5.47;;;11.00;99.90;;;;;;5043965;28;20056;-44
2022/11/16 05:51:55;;;;;;;8.45;5.43;;;11.00;99.90;;;;;;5043098;28;20384;-42
2022/11/16 05:54:26;;;;;;;9.70;5.90;;;11.00;99.90;;;;;;5045616;28;20079;-44
2022/11/16 05:56:52;;;;;;;9.20;5.43;;;11.00;99.90;;;;;;5050770;28;20041;-40
2022/11/16 05:59:20;;;;;;;10.13;5.97;;;11.00;99.90;;;;;;5045127;28;20461;-46
2022/11/16 06:01:46;;;;;;;9.45;6.10;;;11.00;99.90;;;;;;5046490;28;20047;-42
2022/11/16 06:04:13;;;;;;;7.95;5.03;;;11.00;99.90;;;;;;5040992;28;20092;-41
2022/11/16 06:06:39;;;;;;;10.68;5.72;;;11.00;99.90;;;;;;5044503;28;20041;-41
2022/11/16 06:09:05;;;;;;;6.57;4.35;;;10.90;99.90;;;;;;5044811;28;20491;-42
2022/11/16 06:11:32;;;;;;;7.22;3.58;;;10.90;99.90;;;;;;5044623;28;20119;-43
2022/11/16 06:13:58;;;;;;;8.77;4.68;;;10.90;99.90;;;;;;5044180;28;20037;-44
2022/11/16 06:16:23;;;;;;;8.73;5.10;;;10.90;99.90;;;;;;5041109;28;20044;-43
2022/11/16 06:18:49;;;;;;;9.43;5.18;;;10.90;99.90;;;;;;5047796;28;20457;-45
2022/11/16 06:21:17;;;;;;;10.05;3.83;;;10.90;99.90;;;;;;5042270;28;20029;-45
2022/11/16 06:23:43;;;;;;;6.38;4.05;;;10.90;99.90;;;;;;5040766;28;20037;-44
2022/11/16 06:26:09;;;;;;;7.22;3.92;;;10.80;99.90;;;;;;5037115;28;20116;-42
2022/11/16 06:28:35;;;;;;;8.43;3.95;;;10.80;99.90;;;;;;5044847;28;20040;-43
2022/11/16 06:31:01;;;;;;;9.90;4.32;;;10.80;99.90;;;;;;5042376;28;20691;-42
2022/11/16 06:33:27;;;;;;;8.15;4.57;;;10.80;99.90;;;;;;5043180;28;20036;-47
2022/11/16 06:35:53;;;;;;;9.02;4.93;;;10.80;99.90;;;;;;5044792;28;20033;-43
2022/11/16 06:38:19;;;;;;;6.35;4.03;;;10.80;99.90;;;;;;5041868;28;20084;-41
2022/11/16 06:40:53;;;;;;;7.47;4.20;;;10.70;99.90;;;;;;5042727;28;20414;-44
2022/11/16 06:43:19;;;;;;;5.95;3.35;;;10.70;99.90;;;;;;5036468;28;20043;-42
2022/11/16 06:45:53;;;;;;;9.25;3.60;;;10.70;99.90;;;;;;5042095;28;20045;-40
2022/11/16 06:48:19;;;;;;;5.07;2.85;;;10.70;99.90;;;;;;5045430;28;20037;-42
2022/11/16 06:50:48;;;;;;;6.45;2.95;;;10.60;99.90;;;;;;5044429;28;20106;-43
2022/11/16 06:53:13;;;;;;;6.22;3.38;;;10.70;99.90;;;;;;5042571;28;20045;-42
2022/11/16 06:55:39;;;;;;;5.13;3.00;;;10.70;99.90;;;;;;5046168;28;20044;-40
2022/11/16 06:58:05;;;;;;;8.40;3.70;;;10.60;99.90;;;;;;5042144;28;20399;-46
2022/11/16 07:00:30;;;;;;;7.43;3.83;;;10.60;99.90;;;;;;5042410;28;20043;-45
2022/11/16 07:02:56;;;;;;;5.68;3.35;;;10.60;99.90;;;;;;5040626;28;20111;-44
2022/11/16 07:05:22;;;;;;;8.85;4.28;;;10.60;99.90;;;;;;5040825;28;20040;-41
2022/11/16 07:07:51;;;;;;;7.63;3.75;;;10.60;99.90;;;;;;5043610;28;20048;-44
2022/11/16 07:10:17;;;;;;;6.20;3.63;;;10.60;99.90;;;;;;5046954;28;20520;-44
2022/11/16 07:12:43;;;;;;;7.47;3.90;;;10.60;99.90;;;;;;5039679;28;20037;-41
2022/11/16 07:15:09;;;;;;;6.20;3.33;;;10.60;99.90;;;;;;5040408;28;20462;-41
2022/11/16 07:17:35;;;;;;;4.78;3.15;;;10.60;99.90;;;;;;5036483;28;20776;-45
2022/11/16 07:20:01;;;;;;;7.40;4.05;;;10.60;99.90;;;;;;5042401;28;20116;-42
2022/11/16 07:22:26;;;;;;;7.43;3.65;;;10.60;99.90;;;;;;5035925;28;20206;-41
2022/11/16 07:24:52;;;;;;;6.80;3.75;;;10.60;99.90;;;;;;5040966;28;20040;-41
2022/11/16 07:27:18;;;;;;;6.68;3.83;;;10.60;99.90;;;;;;5045396;28;20106;-42
2022/11/16 07:29:43;;;;;;;7.15;4.38;;;10.60;99.90;;;;;;5038270;28;20388;-42
2022/11/16 07:32:09;;;;;;;8.98;4.75;;;10.60;99.90;;;;;;5032064;28;20052;-45
2022/11/16 07:34:35;;;;;;;8.55;5.13;;;10.60;99.90;;;;;;5041926;28;20564;-45
2022/11/16 07:37:00;;;;;;;8.07;5.13;;;10.60;99.90;;;;;;5043853;28;20456;-46
2022/11/16 07:39:26;;;;;;;9.00;4.03;;;10.60;99.90;;;;;;5036695;28;20036;-43
2022/11/16 07:41:52;;;;;;;9.23;5.05;;;10.60;99.90;;;;;;5038882;28;20036;-42
2022/11/16 07:44:18;;;;;;;7.72;4.75;;;10.60;99.90;;;;;;5047710;28;20049;-41
2022/11/16 07:46:44;;;;;;;10.38;5.63;;;10.70;99.90;;;;;;5043180;28;20117;-43
2022/11/16 07:49:14;;;;;;;11.20;5.30;;;10.70;99.90;;;;;;5041563;28;20479;-43
2022/11/16 07:51:40;;;;;;;10.18;4.90;;;10.70;99.90;;;;;;5044341;28;20087;-43
2022/11/16 07:54:06;;;;;;;8.82;4.47;;;10.70;99.90;;;;;;5045630;28;20068;-43
2022/11/16 07:56:31;;;;;;;8.52;4.88;;;10.70;99.90;;;;;;5045678;28;20407;-44
2022/11/16 07:58:57;;;;;;;8.65;5.18;;;10.70;99.90;;;;;;5041000;28;20032;-43
2022/11/16 08:01:23;;;;;;;9.40;5.50;;;10.70;99.90;;;;;;5041145;28;20042;-40
2022/11/16 08:03:52;;;;;;;10.23;4.72;;;10.70;99.90;;;;;;5035122;28;20048;-41
2022/11/16 08:06:24;;;;;;;8.80;5.25;;;10.70;99.90;;;;;;5038967;28;20128;-45
2022/11/16 08:08:49;;;;;;;11.32;5.93;;;10.80;99.90;;;;;;5041091;28;20122;-45
2022/11/16 08:11:15;;;;;;;9.32;4.45;;;10.80;99.90;;;;;;5036205;28;20036;-42
2022/11/16 08:13:41;;;;;;;9.68;5.53;;;10.80;99.90;;;;;;5041250;28;20441;-43
2022/11/16 08:16:10;;;;;;;9.70;5.53;;;10.80;99.90;;;;;;5036827;28;20300;-40
2022/11/16 08:18:37;;;;;;;8.75;4.90;;;10.80;99.90;;;;;;5039753;28;20124;-44
2022/11/16 08:21:04;;;;;;;10.50;5.30;;;10.80;99.90;;;;;;5033769;28;20095;-43
2022/11/16 08:23:30;;;;;;;10.27;4.93;;;10.80;99.90;;;;;;5040528;28;20120;-42
2022/11/16 08:26:05;;;;;;;9.90;4.68;;;10.80;99.90;;;;;;5032557;28;20029;-46
2022/11/16 08:28:31;;;;;;;9.95;4.82;;;10.80;99.90;;;;;;5031600;28;21125;-41
2022/11/16 08:30:58;;;;;;;9.90;4.93;;;10.90;99.90;;;;;;5038154;28;20049;-42
2022/11/16 08:33:25;;;;;;;10.52;4.60;;;10.90;99.90;;;;;;5037690;28;20089;-40
2022/11/16 08:35:52;;;;;;;10.73;4.93;;;10.90;99.90;;;;;;5037099;28;20037;-43
2022/11/16 08:38:17;;;;;;;10.15;5.05;;;10.90;99.90;;;;;;5036099;28;20132;-40
2022/11/16 08:40:44;;;;;;;9.73;4.70;;;10.90;99.90;;;;;;5042493;28;20121;-42
2022/11/16 08:43:10;;;;;;;9.35;4.15;;;10.90;99.90;;;;;;5037713;28;20083;-41
2022/11/16 08:45:36;;;;;;;11.02;5.78;;;11.00;99.90;;;;;;5045796;28;20099;-43
2022/11/16 08:48:03;;;;;;;11.32;5.28;;;11.00;99.90;;;;;;5042462;28;20088;-45
2022/11/16 08:50:28;;;;;;;11.07;5.70;;;11.00;99.90;;;;;;5045719;28;20494;-49
2022/11/16 08:52:56;;;;;;;9.68;5.80;;;11.10;99.90;;;;;;5040153;28;20041;-43
2022/11/16 08:55:22;;;;;;;10.93;5.63;;;11.10;99.90;;;;;;5042974;28;20083;-43
2022/11/16 08:57:48;;;;;;;12.00;5.80;;;11.20;99.90;;;;;;5035764;28;20037;-43
2022/11/16 09:00:14;;;;;;;10.52;5.80;;;11.20;99.90;;;;;;5040532;28;20110;-46
2022/11/16 09:02:39;;;;;;;12.27;6.13;;;11.20;99.90;;;;;;5035850;28;20040;-43
2022/11/16 09:05:06;;;;;;;11.90;6.28;;;11.30;99.90;;;;;;5038462;28;20033;-41
2022/11/16 09:07:32;;;;;;;11.50;6.53;;;11.30;99.90;;;;;;5040812;28;20490;-45
2022/11/16 09:09:58;;;;;;;11.10;5.80;;;11.30;99.90;;;;;;5038874;28;20124;-42
2022/11/16 09:12:24;;;;;;;11.70;6.30;;;11.30;99.90;;;;;;5037601;28;20060;-45
2022/11/16 09:14:50;;;;;;;15.07;6.45;;;11.30;99.90;;;;;;5046563;28;20056;-43
2022/11/16 09:17:16;;;;;;;10.50;6.28;;;11.30;99.90;;;;;;5041448;28;20084;-43
2022/11/16 09:19:41;;;;;;;11.65;6.63;;;11.30;99.90;;;;;;5041534;28;20078;-43
2022/11/16 09:22:07;;;;;;;13.52;6.00;;;11.30;99.90;;;;;;5039613;28;20037;-40
2022/11/16 09:24:33;;;;;;;12.35;6.35;;;11.30;99.90;;;;;;5037284;28;20055;-42
2022/11/16 09:27:02;;;;;;;12.10;5.88;;;11.30;99.90;;;;;;5032584;28;20045;-41
2022/11/16 09:29:27;;;;;;;10.65;5.70;;;11.30;99.90;;;;;;5040404;28;20045;-44
2022/11/16 09:31:54;;;;;;;10.95;5.35;;;11.30;99.90;;;;;;5036924;28;20129;-41
2022/11/16 09:34:20;;;;;;;11.73;5.50;;;11.30;99.90;;;;;;5018977;28;20129;-43
2022/11/16 09:36:45;;;;;;;11.30;5.70;;;11.30;99.90;;;;;;4998281;28;20133;-42
2022/11/16 09:39:12;;;;;;;9.02;4.75;;;11.30;99.90;;;;;;4996334;28;20038;-43
2022/11/16 09:41:51;;;;;;;12.50;5.38;;;11.30;99.90;;;;;;4996576;28;20411;-43
2022/11/16 09:44:22;;;;;;;11.35;5.03;;;11.30;99.90;;;;;;4993952;28;20050;-46
2022/11/16 09:46:54;;;;;;;8.40;5.10;;;11.30;99.90;;;;;;4999720;28;20053;-42
2022/11/16 09:49:28;;;;;;;11.02;4.28;;;11.40;99.90;;;;;;4994602;28;20046;-42
2022/11/16 09:51:59;;;;;;;9.18;5.15;;;11.40;99.90;;;;;;4997418;28;20054;-41
2022/11/16 09:54:36;;;;;;;7.65;4.97;;;11.40;99.90;;;;;;4993445;28;20367;-42
2022/11/16 09:57:06;;;;;;;8.27;4.60;;;11.40;99.90;;;;;;4996964;28;20484;-43
2022/11/16 09:59:40;;;;;;;9.93;4.50;;;11.40;99.90;;;;;;4994136;28;20042;-44
2022/11/16 10:02:25;;;;;;;10.77;4.68;;;11.40;99.90;;;;;;5002315;28;20129;-42
2022/11/16 10:05:02;;;;;;;6.07;3.75;;;11.50;99.90;;;;;;5000358;28;20046;-43
2022/11/16 10:07:35;;;;;;;9.38;4.00;;;11.50;99.90;;;;;;5001633;28;20109;-45
2022/11/16 10:10:01;;;;;;;9.40;3.35;;;11.40;99.90;;;;;;5001281;28;20056;-43
2022/11/16 10:12:45;;;;;;;7.57;2.80;;;11.30;99.90;;;;;;5000846;28;20491;-45
2022/11/16 10:15:31;;;;;;;9.15;3.35;;;11.30;99.90;;;;;;5000330;28;20034;-41
2022/11/16 10:18:03;;;;;;;9.88;3.30;;;11.30;99.90;;;;;;4997608;28;20554;-42
2022/11/16 10:21:07;;;;;;;7.03;3.05;;;11.30;99.90;;;;;;5001305;28;20057;-45
2022/11/16 10:23:53;;;;;;;6.55;2.63;;;11.30;99.90;;;;;;5001886;28;20058;-42
2022/11/16 10:26:33;;;;;;;9.82;2.38;;;11.50;99.90;;;;;;4997098;28;20069;-42
2022/11/16 10:29:24;;;;;;;9.07;3.22;;;11.60;99.90;;;;;;5004868;28;21665;-41
2022/11/16 10:32:17;;;;;;;6.93;2.30;;;11.70;99.90;;;;;;5001601;28;20042;-42
2022/11/16 10:34:53;;;;;;;7.03;2.47;;;11.80;99.90;;;;;;4997493;28;20535;-41
2022/11/16 10:37:19;;;;;;;12.25;3.22;;;11.80;99.90;;;;;;5002019;28;20050;-43
2022/11/16 10:39:48;;;;;;;13.38;2.50;;;11.70;99.90;;;;;;4999414;28;20042;-40
2022/11/16 10:42:46;;;;;;;7.10;2.22;;;11.60;99.90;;;;;;4999301;28;20041;-44
2022/11/16 10:45:15;;;;;;;4.15;1.88;;;11.50;99.90;;;;;;5001267;28;20062;-47
2022/11/16 10:47:49;;;;;;;6.68;2.55;;;11.50;99.90;;;;;;4998245;28;20144;-42
2022/11/16 10:50:30;;;;;;;8.50;2.00;;;11.50;99.90;;;;;;4998703;28;20609;-43
2022/11/16 10:52:56;;;;;;;8.02;2.00;;;11.60;99.90;;;;;;5001997;28;20038;-42
2022/11/16 10:55:23;;;;;;;5.50;1.88;;;11.60;99.90;;;;;;5005078;28;20391;-46
2022/11/16 10:58:03;;;;;;;6.53;1.55;;;11.80;99.90;;;;;;5001079;28;20050;-42
2022/11/16 11:00:47;;;;;;;8.07;1.70;;;12.20;99.90;;;;;;5001262;28;20115;-45
2022/11/16 11:03:14;;;;;;;5.78;1.27;;;12.50;99.90;;;;;;4997078;28;20041;-43
2022/11/16 11:05:53;;;;;;;7.80;1.77;;;12.80;99.90;;;;;;4995856;28;20042;-40
2022/11/16 11:08:30;;;;;;;4.78;1.50;;;13.20;99.90;;;;;;4998551;28;20074;-42
2022/11/16 11:14:07;;;;;;;5.78;1.58;;;13.30;99.90;;;;;;5000700;28;20499;-42
2022/11/16 11:16:33;;;;;;;6.78;1.33;;;13.20;99.90;;;;;;5000735;28;20050;-42
2022/11/16 11:19:16;;;;;;;5.78;1.52;;;13.40;99.90;;;;;;5003735;28;20048;-42
2022/11/16 11:21:43;;;;;;;5.60;1.50;;;13.80;99.90;;;;;;5009778;28;20038;-43
2022/11/16 11:24:16;;;;;;;6.53;1.67;;;14.30;99.90;;;;;;4998555;28;20046;-41
2022/11/16 11:26:42;;;;;;;5.88;1.58;;;14.60;99.90;;;;;;4998949;28;20038;-43
2022/11/16 11:29:28;;;;;;;7.38;1.63;;;14.90;99.90;;;;;;5001918;28;20081;-44
2022/11/16 11:31:59;;;;;;;4.15;1.30;;;14.80;99.90;;;;;;4992895;28;20423;-47
2022/11/16 11:34:28;;;;;;;7.88;1.90;;;14.50;99.90;;;;;;4993060;28;20503;-45
2022/11/16 11:36:55;;;;;;;6.30;1.75;;;14.20;99.90;;;;;;4992078;28;20056;-45
2022/11/16 11:39:21;;;;;;;7.13;1.70;;;13.90;99.90;;;;;;4993515;28;20488;-46
2022/11/16 11:42:12;;;;;;;7.35;1.40;;;13.50;99.90;;;;;;4991815;28;20044;-46
2022/11/16 11:44:58;;;;;;;6.40;1.77;;;13.40;99.90;;;;;;4994683;28;20038;-48
2022/11/16 11:47:46;;;;;;;6.28;1.77;;;13.70;99.90;;;;;;4993746;28;20042;-44
2022/11/16 11:50:20;;;;;;;12.73;1.60;;;14.10;99.90;;;;;;4998591;28;20507;-47
2022/11/16 11:52:59;;;;;;;4.32;1.30;;;14.20;99.90;;;;;;4999761;28;20042;-47
2022/11/16 11:55:25;;;;;;;8.07;1.33;;;14.70;99.90;;;;;;5000119;28;20045;-44
2022/11/16 11:57:52;;;;;;;7.75;1.30;;;15.30;99.90;;;;;;5000798;28;20436;-43
2022/11/16 12:00:18;;;;;;;5.03;1.77;;;15.70;99.90;;;;;;4992240;28;20047;-44
2022/11/16 12:03:05;;;;;;;6.78;1.52;;;15.60;99.90;;;;;;4998756;28;20192;-47
2022/11/16 12:06:01;;;;;;;5.55;1.50;;;15.30;99.90;;;;;;4997156;28;20103;-49
2022/11/16 12:08:53;;;;;;;8.07;1.20;;;15.60;99.90;;;;;;5002037;28;20109;-46
2022/11/16 12:11:48;;;;;;;7.28;1.35;;;16.00;98.70;;;;;;5000029;28;20144;-47
2022/11/16 12:14:43;;;;;;;5.10;1.27;;;15.70;99.00;;;;;;4998723;28;20045;-43
2022/11/16 12:17:32;;;;;;;8.48;1.85;;;15.50;99.50;;;;;;5002727;28;20047;-45
2022/11/16 12:20:11;;;;;;;6.05;1.13;;;15.20;99.40;;;;;;5000639;28;20048;-47
2022/11/16 12:23:15;;;;;;;4.65;1.40;;;15.70;99.90;;;;;;5001281;28;20488;-44
2022/11/16 12:26:18;;;;;;;5.60;1.52;;;16.50;97.60;;;;;;5006452;28;20403;-45
2022/11/16 12:28:59;;;;;;;;;;;17.30;94.20;;;;;;5001969;28;20530;-45
2022/11/16 12:31:50;;;;;;;5.47;0.98;;;17.30;91.70;;;;;;4999088;28;19925;-43
2022/11/16 12:34:24;;;;;;;6.53;1.45;;;17.50;93.90;;;;;;5005156;28;20038;-44
2022/11/16 12:37:11;;;;;;;5.43;1.10;;;17.80;92.60;;;;;;5000026;28;20525;-45
2022/11/16 12:40:06;;;;;;;7.25;1.95;;;17.90;92.00;;;;;;5011200;28;20034;-46
2022/11/16 12:42:44;;;;;;;6.18;1.42;;;18.00;89.90;;;;;;4996915;28;20038;-48
2022/11/16 12:45:49;;;;;;;4.97;0.93;;;17.90;90.30;;;;;;5006426;28;20054;-45
2022/11/16 12:48:23;;;;;;;5.35;1.10;;;18.00;83.30;;;;;;5002863;28;20085;-48
2022/11/16 12:50:55;;;;;;;6.28;1.35;;;18.10;89.30;;;;;;4999321;28;20152;-44
2022/11/16 12:53:39;;;;;;;8.68;1.38;;;18.20;89.10;;;;;;5000034;28;20084;-49
2022/11/16 12:56:13;;;;;;;8.18;1.40;;;18.40;90.00;;;;;;5000132;28;20046;-44
2022/11/16 12:58:45;;;;;;;6.68;1.33;;;18.10;88.90;;;;;;5003620;28;20525;-44
2022/11/16 13:01:46;;;;;;;8.18;1.52;;;17.80;89.40;;;;;;5002237;28;20125;-48
2022/11/16 13:04:28;;;;;;;6.28;1.58;;;16.90;88.50;;;;;;4998144;28;20514;-46
2022/11/16 13:07:03;;;;;;;5.15;1.10;;;16.60;91.60;;;;;;5002257;28;20107;-47
2022/11/16 13:09:37;;;;;;;2.88;1.10;;;17.10;91.90;;;;;;4997428;28;20054;-43
2022/11/16 13:12:12;;;;;;;6.22;1.00;;;17.80;90.80;;;;;;5001384;28;20037;-45
2022/11/16 13:14:43;;;;;;;4.60;1.00;;;18.10;90.10;;;;;;5001496;28;20038;-46
2022/11/16 13:17:33;;;;;;;4.45;0.90;;;18.10;90.00;;;;;;5004337;28;20096;-44
2022/11/16 13:20:18;;;;;;;5.80;1.23;;;17.90;89.90;;;;;;5001539;28;20070;-40
2022/11/16 13:23:10;;;;;;;3.78;0.77;;;17.90;87.50;;;;;;5001666;28;20038;-46
2022/11/16 13:25:55;;;;;;;5.32;1.30;;;18.20;86.90;;;;;;5002117;28;20132;-45
2022/11/16 13:28:38;;;;;;;8.32;1.10;;;18.50;84.40;;;;;;4997043;28;20555;-48
2022/11/16 13:31:31;;;;;;;6.18;1.05;;;18.80;84.60;;;;;;5004371;28;20042;-45
2022/11/16 13:34:30;;;;;;;5.68;1.15;;;19.10;84.50;;;;;;5000048;28;20033;-44
2022/11/16 13:36:56;;;;;;;3.17;0.93;;;19.40;80.30;;;;;;5001109;28;20042;-46
2022/11/16 13:39:56;;;;;;;9.82;1.27;;;19.60;83.10;;;;;;5001679;28;20034;-46
2022/11/16 13:42:22;;;;;;;5.57;0.95;;;19.20;75.50;;;;;;4998322;28;20049;-47
2022/11/16 13:44:49;;;;;;;8.15;1.05;;;18.50;81.90;;;;;;5005597;28;20045;-44
2022/11/16 13:47:24;;;;;;;6.00;1.00;;;18.20;83.00;;;;;;5005107;28;20041;-44